Time;durP1;ratioP1;P1;durP2;ratioP2;P2;SDS_P1;SDS_P2;PMS_P1;PMS_P2;Temp;Humidity;BMP_temperature;BMP_pressure;BME280_temperature;BME280_humidity;BME280_pressure;Samples;Min_cycle;Max_cycle;Signal;HPM_P1;HPM_P2
2021/01/02 00:02:05;;;;;;;8.60;7.13;;;8.30;99.90;;;8.47;75.85;101056.97;5075091;28;20425;-70
2021/01/02 00:05:06;;;;;;;;;;;8.30;99.90;;;8.54;76.19;101062.28;5075710;28;20133;-72
2021/01/02 00:08:06;;;;;;;8.90;7.75;;;8.30;99.90;;;8.42;76.22;101056.94;5073622;28;19931;-73
2021/01/02 00:10:47;;;;;;;9.55;8.15;;;8.20;99.90;;;8.27;76.48;101026.94;5075091;28;20048;-74
2021/01/02 00:13:38;;;;;;;9.75;8.25;;;8.20;99.90;;;8.40;76.26;101060.44;5074937;28;20053;-76
2021/01/02 00:16:29;;;;;;;;;;;8.10;99.90;;;8.41;76.18;101057.81;5075474;28;20044;-76
2021/01/02 00:19:07;;;;;;;8.90;7.95;;;8.10;99.90;;;8.34;76.77;101044.59;5073744;28;19921;-76
2021/01/02 00:21:50;;;;;;;12.23;9.18;;;8.10;99.90;;;8.46;76.67;101052.59;5074702;28;20079;-75
2021/01/02 00:24:43;;;;;;;13.95;9.75;;;8.10;99.90;;;8.46;76.13;101060.50;5075036;28;20048;-75
2021/01/02 00:27:21;;;;;;;15.90;10.23;;;8.20;99.90;;;8.45;76.58;101061.34;5074858;28;20086;-75
2021/01/02 00:30:09;;;;;;;15.73;11.20;;;8.20;99.90;;;8.36;76.10;101058.66;5074847;28;20048;-75
2021/01/02 00:32:59;;;;;;;15.75;11.75;;;8.10;99.90;;;8.25;76.21;101041.84;5074428;28;20387;-75
2021/01/02 00:35:28;;;;;;;15.48;11.95;;;8.10;99.90;;;8.28;76.32;101063.88;5074493;28;20040;-76
2021/01/02 00:38:03;;;;;;;17.05;11.68;;;8.00;99.90;;;8.30;76.51;101058.59;5074311;28;20490;-75
2021/01/02 00:40:32;;;;;;;17.77;13.23;;;8.00;99.90;;;8.26;76.15;101055.06;5074695;28;20044;-75
2021/01/02 00:42:59;;;;;;;19.92;12.98;;;8.00;99.90;;;8.28;76.33;101053.34;5074506;28;20080;-74
2021/01/02 00:45:30;;;;;;;17.33;12.57;;;8.00;99.90;;;8.10;76.40;101030.31;5074186;28;20516;-75
2021/01/02 00:47:57;;;;;;;19.23;13.18;;;8.00;99.90;;;8.30;76.24;101063.88;5074470;28;20062;-75
2021/01/02 00:50:32;;;;;;;17.52;13.27;;;8.00;99.90;;;8.31;76.39;101065.63;5073118;28;20529;-76
2021/01/02 00:53:40;;;;;;;19.27;13.52;;;8.10;99.90;;;8.21;76.07;101046.19;5073107;28;20477;-76
2021/01/02 00:56:30;;;;;;;16.67;12.98;;;8.10;99.90;;;8.14;75.27;101065.47;5073023;28;20055;-75
2021/01/02 00:59:50;;;;;;;20.88;12.55;;;8.00;99.90;;;8.11;75.73;101065.41;5071592;28;20405;-75
2021/01/02 01:02:59;;;;;;;19.90;13.70;;;8.00;99.90;;;8.13;75.66;101067.22;5073045;28;20086;-75
2021/01/02 01:05:33;;;;;;;18.42;13.20;;;8.00;99.90;;;8.13;75.52;101067.22;5073996;28;20068;-75
2021/01/02 01:08:01;;;;;;;20.92;13.57;;;8.00;99.90;;;8.10;76.02;101068.94;5074154;28;20052;-76
2021/01/02 01:10:30;;;;;;;17.88;13.50;;;7.90;99.90;;;7.93;75.65;101046.84;5072900;28;20504;-75
2021/01/02 01:13:01;;;;;;;18.63;12.37;;;7.90;99.90;;;8.04;76.25;101067.13;5073720;28;20052;-75
2021/01/02 01:15:30;;;;;;;19.83;13.63;;;7.90;99.90;;;7.70;76.01;100995.72;5074094;28;20053;-75
2021/01/02 01:18:15;;;;;;;17.45;13.00;;;7.90;99.90;;;7.69;76.38;100984.31;5072464;28;20052;-75
2021/01/02 01:20:47;;;;;;;17.33;12.75;;;7.90;99.90;;;8.23;76.29;101077.84;5073489;28;20068;-74
2021/01/02 01:23:48;;;;;;;17.83;13.57;;;8.00;99.90;;;8.31;76.12;101076.16;5072395;28;20060;-74
2021/01/02 01:26:40;;;;;;;16.10;12.50;;;8.00;99.90;;;8.23;76.49;101091.88;5066738;28;20135;-74
2021/01/02 01:29:17;;;;;;;16.85;12.80;;;8.00;99.90;;;8.21;77.17;101089.25;5073467;28;20037;-74
2021/01/02 01:31:47;;;;;;;18.13;13.03;;;8.00;99.90;;;8.16;77.01;101090.97;5073433;28;20045;-72
2021/01/02 01:34:22;;;;;;;16.58;12.43;;;7.90;99.90;;;8.20;77.90;101103.31;5073606;28;20064;-72
2021/01/02 01:36:51;;;;;;;18.13;12.55;;;8.00;99.90;;;8.23;77.82;101093.66;5071764;28;20463;-73
2021/01/02 01:39:22;;;;;;;19.42;12.98;;;8.00;99.90;;;8.13;77.40;101083.03;5073457;28;20037;-73
2021/01/02 01:41:58;;;;;;;18.92;13.48;;;8.10;99.90;;;8.26;77.55;101096.34;5073507;28;20128;-73
2021/01/02 01:45:07;;;;;;;21.25;13.43;;;8.10;99.90;;;8.05;78.10;101095.22;5072015;28;20052;-74
2021/01/02 01:47:40;;;;;;;20.63;14.82;;;7.80;99.90;;;8.14;78.48;101095.34;5072475;28;20064;-73
2021/01/02 01:50:26;;;;;;;22.35;14.88;;;7.80;99.90;;;8.19;78.35;101093.63;5073575;28;20434;-73
2021/01/02 01:53:40;;;;;;;22.35;15.55;;;7.90;99.90;;;8.25;78.20;101092.81;5073130;28;20032;-73
2021/01/02 01:56:17;;;;;;;23.67;15.52;;;8.00;99.90;;;8.14;78.30;101057.56;5073117;28;20044;-73
2021/01/02 01:59:23;;;;;;;22.77;15.73;;;8.00;99.90;;;8.22;78.48;101079.59;5073077;28;20094;-72
2021/01/02 02:01:53;;;;;;;25.13;17.60;;;8.00;99.90;;;8.15;78.38;101076.00;5071720;28;20110;-73
2021/01/02 02:05:00;;;;;;;24.77;17.63;;;8.00;99.90;;;8.27;78.32;101090.19;5073040;28;20056;-72
2021/01/02 02:07:42;;;;;;;29.77;18.50;;;8.00;99.90;;;7.72;78.22;100999.25;5071600;28;20143;-72
2021/01/02 02:10:15;;;;;;;28.40;18.58;;;8.00;99.90;;;8.16;78.22;101079.53;5072758;28;20040;-72
2021/01/02 02:12:53;;;;;;;25.67;18.08;;;8.10;99.90;;;8.35;78.11;101092.03;5072449;28;20445;-72
2021/01/02 02:15:24;;;;;;;26.48;18.10;;;8.10;99.90;;;8.36;78.24;101091.16;5072580;28;20439;-73
2021/01/02 02:18:05;;;;;;;26.77;19.30;;;8.10;99.90;;;7.44;77.64;100929.69;5071474;28;20151;-72
2021/01/02 02:20:35;;;;;;;28.17;18.67;;;8.20;99.90;;;8.39;77.94;101092.91;5072761;28;20052;-73
2021/01/02 02:23:05;;;;;;;28.73;19.70;;;8.10;99.90;;;8.31;77.43;101078.81;5072577;28;20060;-72
2021/01/02 02:26:04;;;;;;;31.67;19.42;;;8.20;99.90;;;8.39;77.83;101079.75;5071377;28;20044;-73
2021/01/02 02:29:22;;;;;;;31.30;19.60;;;8.20;99.90;;;8.46;77.74;101082.44;5072307;28;20044;-73
2021/01/02 02:31:54;;;;;;;29.98;19.98;;;8.20;99.90;;;8.33;77.52;101058.63;5072271;28;20071;-73
2021/01/02 02:34:24;;;;;;;28.23;19.35;;;8.30;99.90;;;8.48;77.33;101090.38;5072333;28;20037;-73
2021/01/02 02:36:52;;;;;;;28.63;19.77;;;8.30;99.90;;;8.50;77.38;101128.16;5072188;28;20066;-73
2021/01/02 02:39:19;;;;;;;29.08;20.05;;;8.30;99.90;;;8.53;77.03;101097.44;5072708;28;20098;-73
2021/01/02 02:41:51;;;;;;;29.90;19.55;;;8.30;99.90;;;8.52;77.12;101103.56;5072402;28;20142;-73
2021/01/02 02:44:24;;;;;;;31.65;19.83;;;8.30;99.90;;;8.51;77.24;101099.19;5072563;28;20056;-73
2021/01/02 02:46:56;;;;;;;28.85;20.13;;;8.20;99.90;;;8.41;77.04;101085.91;5070710;28;20479;-72
2021/01/02 02:49:25;;;;;;;28.63;20.13;;;8.20;99.90;;;8.41;77.53;101088.56;5071973;28;20059;-74
2021/01/02 02:52:00;;;;;;;31.17;19.98;;;8.30;99.90;;;8.45;77.01;101099.13;5072190;28;20469;-73
2021/01/02 02:54:28;;;;;;;28.45;19.55;;;8.20;99.90;;;8.36;76.83;101095.56;5071002;28;20567;-73
2021/01/02 02:56:56;;;;;;;29.90;20.20;;;8.10;99.90;;;7.98;77.33;101035.47;5072238;28;20037;-73
2021/01/02 02:59:26;;;;;;;;;;;8.10;99.90;;;8.17;76.79;101073.38;5072682;28;20045;-74
2021/01/02 03:01:53;;;;;;;31.98;20.48;;;8.20;99.90;;;8.30;76.87;101095.50;5072459;28;20273;-73
2021/01/02 03:04:20;;;;;;;31.27;20.48;;;8.10;99.90;;;8.24;77.55;101096.28;5071841;28;20401;-73
2021/01/02 03:06:49;;;;;;;30.75;19.48;;;8.10;99.90;;;8.20;77.09;101103.31;5072240;28;20102;-73
2021/01/02 03:09:17;;;;;;;32.00;19.95;;;8.00;99.90;;;8.20;77.72;101098.03;5072066;28;20094;-73
2021/01/02 03:11:44;;;;;;;32.85;20.98;;;8.00;99.90;;;8.23;77.21;101105.06;5071791;28;20128;-73
2021/01/02 03:14:14;;;;;;;31.38;19.92;;;8.00;99.90;;;8.04;77.70;101067.13;5070424;28;20076;-74
2021/01/02 03:16:41;;;;;;;34.30;21.13;;;8.00;99.90;;;8.24;77.49;101106.84;5071827;28;20158;-74
2021/01/02 03:19:09;;;;;;;33.90;22.55;;;8.00;99.90;;;8.10;77.56;101088.28;5071988;28;20048;-74
2021/01/02 03:21:37;;;;;;;31.77;20.58;;;8.00;99.90;;;8.28;77.67;101107.78;5070463;28;20044;-74
2021/01/02 03:24:08;;;;;;;34.28;21.73;;;8.00;99.90;;;8.26;77.46;101098.97;5071706;28;20045;-74
2021/01/02 03:26:35;;;;;;;33.25;20.98;;;8.00;99.90;;;8.23;78.08;101098.94;5070616;28;20048;-74
2021/01/02 03:29:03;;;;;;;33.60;21.27;;;7.90;99.90;;;8.23;77.74;101096.28;5071888;28;20113;-73
2021/01/02 03:31:31;;;;;;;32.63;21.58;;;8.00;99.90;;;8.24;78.23;101093.66;5071840;28;20099;-74
2021/01/02 03:33:58;;;;;;;35.53;22.60;;;8.00;99.90;;;8.28;77.73;101106.03;5071636;28;20086;-74
2021/01/02 03:36:25;;;;;;;35.25;21.52;;;8.00;99.90;;;8.26;77.87;101099.88;5070623;28;20044;-74
2021/01/02 03:38:56;;;;;;;34.22;21.80;;;8.00;99.90;;;8.27;78.01;101098.97;5071861;28;20098;-74
2021/01/02 03:41:25;;;;;;;35.42;23.45;;;8.10;99.90;;;8.27;77.70;101101.63;5072100;28;20080;-74
2021/01/02 03:43:52;;;;;;;33.85;21.33;;;8.00;99.90;;;8.05;77.33;101057.50;5070225;28;20559;-73
2021/01/02 03:46:26;;;;;;;32.55;21.52;;;8.00;99.90;;;8.26;77.60;101091.97;5071494;28;20113;-74
2021/01/02 03:48:55;;;;;;;31.65;20.83;;;8.10;99.90;;;8.27;77.27;101091.06;5071765;28;20036;-74
2021/01/02 03:51:24;;;;;;;30.05;19.15;;;8.10;99.90;;;8.26;77.13;101094.59;5071660;28;20057;-73
2021/01/02 03:53:51;;;;;;;30.30;19.73;;;8.10;99.90;;;8.14;77.16;101076.91;5071433;28;20494;-74
2021/01/02 03:56:19;;;;;;;30.80;20.85;;;8.10;99.90;;;8.22;77.50;101095.41;5070132;28;20043;-74
2021/01/02 03:58:49;;;;;;;32.75;21.08;;;8.10;99.90;;;8.27;76.90;101100.72;5071913;28;20569;-74
2021/01/02 04:01:17;;;;;;;30.02;20.33;;;8.10;99.90;;;8.24;77.49;101091.03;5075036;28;20567;-74
2021/01/02 04:03:44;;;;;;;30.08;19.40;;;8.10;99.90;;;8.28;77.31;101108.66;5075212;28;20049;-74
2021/01/02 04:06:12;;;;;;;31.90;20.33;;;8.10;99.90;;;8.27;77.54;101101.63;5075233;28;20098;-74
2021/01/02 04:08:40;;;;;;;30.80;19.75;;;8.00;99.90;;;8.23;77.45;101105.94;5075146;28;20048;-75
2021/01/02 04:11:08;;;;;;;29.60;19.70;;;8.00;99.90;;;8.23;77.31;101102.41;5075029;28;20048;-74
2021/01/02 04:13:35;;;;;;;31.02;19.83;;;8.00;99.90;;;8.03;77.48;101075.91;5073713;28;20106;-74
2021/01/02 04:16:03;;;;;;;33.17;19.88;;;7.90;99.90;;;8.16;77.62;101106.78;5074756;28;20056;-74
2021/01/02 04:18:31;;;;;;;29.13;19.60;;;7.90;99.90;;;8.13;77.35;101108.47;5075015;28;20104;-74
2021/01/02 04:20:58;;;;;;;29.33;19.83;;;7.90;99.90;;;8.08;77.24;101103.19;5073638;28;20072;-74
2021/01/02 04:23:26;;;;;;;29.17;19.35;;;7.90;99.90;;;8.06;77.26;101106.66;5074954;28;20110;-75
2021/01/02 04:25:56;;;;;;;28.48;19.08;;;7.80;99.90;;;8.05;77.34;101099.66;5074804;28;20052;-74
2021/01/02 04:28:25;;;;;;;28.13;20.20;;;7.80;99.90;;;7.99;77.03;101100.44;5074914;28;20493;-74
2021/01/02 04:30:53;;;;;;;29.23;19.02;;;7.80;99.90;;;8.04;77.62;101106.66;5074511;28;20072;-75
2021/01/02 04:33:20;;;;;;;28.00;19.67;;;7.80;99.90;;;8.02;77.56;101104.84;5074484;28;20412;-74
2021/01/02 04:35:49;;;;;;;30.45;19.58;;;7.80;99.90;;;8.03;77.37;101102.22;5074503;28;20052;-75
2021/01/02 04:38:16;;;;;;;30.92;20.10;;;7.80;99.90;;;8.06;77.37;101104.03;5074360;28;20072;-75
2021/01/02 04:40:45;;;;;;;33.08;19.52;;;7.80;99.90;;;8.05;77.67;101104.91;5074314;28;20045;-74
2021/01/02 04:43:12;;;;;;;28.35;18.58;;;7.80;99.90;;;8.00;77.43;101117.13;5073134;28;20079;-75
2021/01/02 04:45:40;;;;;;;29.25;20.15;;;7.80;99.90;;;7.95;77.40;101088.13;5074261;28;20127;-75
2021/01/02 04:48:08;;;;;;;31.43;20.70;;;7.80;99.90;;;8.02;77.28;101105.75;5074193;28;20044;-74
2021/01/02 04:50:36;;;;;;;32.15;20.35;;;7.80;99.90;;;8.03;77.92;101107.50;5073088;28;20105;-74
2021/01/02 04:53:05;;;;;;;30.63;20.00;;;7.80;99.90;;;8.03;77.86;101109.28;5074061;28;20044;-75
2021/01/02 04:55:33;;;;;;;32.70;21.05;;;7.90;99.90;;;7.98;77.69;101109.22;5074333;28;20467;-74
2021/01/02 04:58:07;;;;;;;33.28;20.58;;;7.90;99.90;;;7.92;77.86;101109.16;5074303;28;20118;-75
2021/01/02 05:00:38;;;;;;;27.58;20.15;;;7.80;99.90;;;7.88;77.67;101101.19;5074271;28;20692;-75
2021/01/02 05:03:06;;;;;;;33.53;20.33;;;7.80;99.90;;;7.90;77.90;101104.72;5072905;28;20857;-75
2021/01/02 05:05:33;;;;;;;30.60;19.53;;;7.80;99.90;;;7.61;77.34;101066.69;5072833;28;20494;-75
2021/01/02 05:08:02;;;;;;;31.77;20.60;;;7.80;99.90;;;7.93;77.71;101113.56;5072756;28;20052;-75
2021/01/02 05:10:30;;;;;;;32.93;21.17;;;7.70;99.90;;;7.89;77.52;101113.53;5073021;28;20402;-75
2021/01/02 05:13:08;;;;;;;28.30;19.67;;;7.70;99.90;;;7.86;77.78;101108.19;5073705;28;20055;-75
2021/01/02 05:15:36;;;;;;;29.00;19.83;;;7.70;99.90;;;7.89;77.85;101122.31;5073696;28;20045;-75
2021/01/02 05:18:04;;;;;;;22.30;16.27;;;7.70;99.90;;;7.56;77.67;101077.19;5073929;28;20125;-74
2021/01/02 05:20:32;;;;;;;24.20;17.80;;;7.60;99.90;;;7.73;78.28;101115.09;5072549;28;20099;-75
2021/01/02 05:23:08;;;;;;;26.70;18.73;;;7.60;99.90;;;7.73;78.12;101101.94;5073388;28;20483;-75
2021/01/02 05:25:36;;;;;;;31.33;20.45;;;7.60;99.90;;;7.87;78.34;101129.31;5073780;28;20052;-75
2021/01/02 05:28:04;;;;;;;30.73;20.88;;;7.60;99.90;;;7.89;78.32;101127.56;5073445;28;20452;-74
2021/01/02 05:30:34;;;;;;;33.70;21.83;;;7.70;99.90;;;7.38;78.22;101034.88;5073367;28;20048;-75
2021/01/02 05:33:08;;;;;;;31.83;21.58;;;7.70;99.90;;;7.96;78.36;101134.66;5073595;28;20044;-75
2021/01/02 05:35:40;;;;;;;32.37;20.83;;;7.70;99.90;;;7.96;78.00;101132.03;5073533;28;20092;-75
2021/01/02 05:38:19;;;;;;;33.03;21.80;;;7.80;99.90;;;7.99;77.89;101131.19;5073251;28;20041;-75
2021/01/02 05:40:50;;;;;;;29.65;21.23;;;7.80;99.90;;;7.97;77.83;101132.91;5071822;28;20040;-75
2021/01/02 05:43:21;;;;;;;30.05;19.75;;;7.80;99.90;;;8.00;77.78;101133.81;5073243;28;20375;-76
2021/01/02 05:45:50;;;;;;;32.95;21.85;;;7.80;99.90;;;7.96;77.93;101137.28;5073115;28;20076;-76
2021/01/02 05:48:24;;;;;;;34.50;21.27;;;7.80;99.90;;;7.98;77.85;101137.31;5073327;28;20045;-76
2021/01/02 05:50:54;;;;;;;30.58;20.38;;;7.80;99.90;;;7.99;77.65;101132.03;5073300;28;20072;-76
2021/01/02 05:53:26;;;;;;;35.65;21.45;;;7.80;99.90;;;7.91;77.76;101125.84;5073193;28;20091;-76
2021/01/02 05:56:06;;;;;;;33.00;20.73;;;7.80;99.90;;;8.00;78.01;101139.09;5073132;28;20048;-76
2021/01/02 05:58:40;;;;;;;31.30;21.08;;;7.80;99.90;;;7.30;77.74;101015.47;5073170;28;20037;-76
2021/01/02 06:01:11;;;;;;;30.55;20.05;;;7.80;99.90;;;7.98;77.91;101143.47;5072800;28;20040;-76
2021/01/02 06:03:43;;;;;;;30.40;20.53;;;7.80;99.90;;;8.02;77.69;101141.72;5071688;28;20410;-76
2021/01/02 06:06:15;;;;;;;31.75;20.95;;;7.80;99.90;;;7.86;77.59;101124.88;5072998;28;20040;-76
2021/01/02 06:08:46;;;;;;;35.17;20.95;;;7.80;99.90;;;7.94;77.44;101128.50;5072927;28;20048;-76
2021/01/02 06:11:16;;;;;;;31.48;21.30;;;7.80;99.90;;;8.03;77.62;101149.66;5072645;28;20489;-76
2021/01/02 06:13:46;;;;;;;35.55;21.27;;;7.80;99.90;;;8.06;77.66;101148.81;5072549;28;20102;-76
2021/01/02 06:16:14;;;;;;;31.30;20.80;;;7.80;99.90;;;8.01;77.63;101151.38;5072758;28;20044;-76
2021/01/02 06:18:43;;;;;;;22.17;15.63;;;7.80;99.90;;;7.91;77.22;101149.53;5072450;28;20449;-76
2021/01/02 06:21:13;;;;;;;24.40;15.77;;;7.80;99.90;;;7.62;76.75;101152.69;5071393;28;20379;-77
2021/01/02 06:23:44;;;;;;;51.90;14.67;;;7.50;99.90;;;6.63;79.13;101133.78;5072618;28;20177;-77
2021/01/02 06:26:14;;;;;;;46.43;14.97;;;6.80;99.90;;;6.19;81.91;101110.28;5072399;28;20123;-76
2021/01/02 06:28:43;;;;;;;22.20;17.23;;;6.30;99.90;;;6.03;82.62;101042.66;5072590;28;20064;-78
2021/01/02 06:31:14;;;;;;;29.60;19.20;;;6.30;99.90;;;6.93;82.19;101161.41;5072192;28;20455;-76
2021/01/02 06:33:44;;;;;;;;;;;6.60;99.90;;;6.90;82.58;101127.19;5071626;28;20056;-77
2021/01/02 06:36:30;;;;;;;26.30;18.42;;;6.90;99.90;;;7.24;81.94;101150.47;5072270;28;20379;-77
2021/01/02 06:39:20;;;;;;;22.63;17.00;;;7.00;99.90;;;7.34;81.42;101153.25;5072508;28;20044;-75
2021/01/02 06:41:49;;;;;;;26.55;18.55;;;7.10;99.90;;;7.37;81.05;101159.41;5072457;28;20045;-76
2021/01/02 06:44:44;;;;;;;26.83;19.67;;;7.20;99.90;;;7.35;80.89;101134.84;5072070;28;20048;-77
2021/01/02 06:47:18;;;;;;;23.57;18.17;;;7.30;99.90;;;7.51;80.63;101155.19;5072131;28;20044;-76
2021/01/02 06:49:50;;;;;;;19.70;15.60;;;7.30;99.90;;;7.55;80.23;101159.63;5072116;28;20398;-77
2021/01/02 06:52:31;;;;;;;20.70;15.57;;;7.40;99.90;;;7.41;80.03;101161.22;5072406;28;20441;-77
2021/01/02 06:55:21;;;;;;;23.80;16.87;;;7.30;99.90;;;7.20;79.69;101139.91;5072083;28;20040;-77
2021/01/02 06:57:50;;;;;;;22.77;16.83;;;7.20;99.90;;;7.19;79.73;101138.13;5066935;28;20466;-77
2021/01/02 07:00:25;;;;;;;23.87;16.83;;;7.20;99.90;;;7.37;79.36;101166.41;5072224;28;20044;-76
2021/01/02 07:02:54;;;;;;;20.93;15.30;;;7.20;99.90;;;7.32;78.95;101172.50;5070895;28;20098;-77
2021/01/02 07:05:47;;;;;;;17.83;14.37;;;7.20;99.90;;;7.22;78.98;101174.97;5072141;28;20131;-76
2021/01/02 07:08:43;;;;;;;17.70;13.33;;;7.10;99.90;;;7.17;79.07;101171.41;5072224;28;20090;-76
2021/01/02 07:11:30;;;;;;;45.97;12.40;;;7.00;99.90;;;6.99;78.41;101166.75;5066440;28;20044;-76
2021/01/02 07:14:21;;;;;;;47.33;10.20;;;6.80;99.90;;;6.22;78.28;101168.13;5072299;28;20051;-76
2021/01/02 07:16:51;;;;;;;53.67;9.83;;;6.10;99.90;;;5.78;79.66;101176.88;5071830;28;20051;-76
2021/01/02 07:19:40;;;;;;;15.25;10.27;;;5.70;99.90;;;6.02;81.30;101174.75;5071871;28;20055;-76
2021/01/02 07:22:11;;;;;;;15.10;12.77;;;5.70;99.90;;;6.24;81.77;101171.66;5071864;28;20056;-75
2021/01/02 07:24:45;;;;;;;17.73;14.27;;;5.90;99.90;;;6.45;81.91;101170.25;5071758;28;20040;-76
2021/01/02 07:27:15;;;;;;;22.37;15.93;;;6.20;99.90;;;5.78;82.07;101040.44;5071781;28;20072;-75
2021/01/02 07:29:44;;;;;;;26.27;18.30;;;6.30;99.90;;;6.66;82.08;101181.16;5072292;28;20537;-76
2021/01/02 07:32:14;;;;;;;19.93;15.67;;;6.50;99.90;;;6.74;81.46;101176.88;5071929;28;20158;-74
2021/01/02 07:34:44;;;;;;;19.97;14.63;;;6.50;99.90;;;6.54;81.09;101139.78;5073721;28;20387;-76
2021/01/02 07:37:14;;;;;;;13.47;11.93;;;6.60;99.90;;;6.80;80.35;101176.97;5075888;28;20301;-74
2021/01/02 07:39:53;;;;;;;26.17;11.93;;;6.60;99.90;;;6.70;79.94;101185.56;5075736;28;20076;-76
2021/01/02 07:42:23;;;;;;;13.10;9.87;;;6.60;99.90;;;6.54;79.12;101184.47;5075763;28;20119;-76
2021/01/02 07:45:03;;;;;;;14.77;10.33;;;6.40;99.90;;;6.43;78.88;101195.66;5075480;28;20052;-76
2021/01/02 07:47:31;;;;;;;19.13;8.88;;;6.30;99.90;;;6.09;78.44;101199.38;5075375;28;20041;-76
2021/01/02 07:50:06;;;;;;;33.50;14.43;;;6.00;99.90;;;6.09;79.95;101191.50;5074259;28;20405;-75
2021/01/02 07:52:33;;;;;;;46.00;13.87;;;5.90;99.90;;;5.81;80.42;101194.41;5075320;28;20044;-72
2021/01/02 07:55:08;;;;;;;37.37;16.47;;;5.60;99.90;;;5.70;81.96;101194.22;5075013;28;20044;-70
2021/01/02 07:57:35;;;;;;;28.27;18.67;;;5.50;99.90;;;5.91;82.68;101197.28;5075306;28;20066;-71
2021/01/02 08:00:08;;;;;;;28.23;20.40;;;5.60;99.90;;;6.13;82.98;101215.25;5074999;28;20075;-72
2021/01/02 08:02:43;;;;;;;28.23;20.23;;;5.80;99.90;;;5.72;82.47;101110.28;5075220;28;20041;-69
2021/01/02 08:05:14;;;;;;;31.30;20.10;;;6.00;99.90;;;6.39;82.65;101221.84;5075057;28;20118;-71
2021/01/02 08:07:51;;;;;;;22.47;16.20;;;6.20;99.90;;;6.49;82.14;101225.53;5074697;28;20044;-70
2021/01/02 08:10:19;;;;;;;29.03;18.43;;;6.20;99.90;;;6.48;82.27;101213.25;5073902;28;20060;-68
2021/01/02 08:12:51;;;;;;;27.58;18.92;;;6.40;99.90;;;6.50;82.32;101215.91;5075091;28;20068;-70
2021/01/02 08:15:27;;;;;;;32.73;18.77;;;6.40;99.90;;;6.58;81.94;101225.66;5074664;28;20494;-69
2021/01/02 08:17:55;;;;;;;34.10;21.93;;;6.30;99.90;;;6.43;82.47;101240.31;5074718;28;20041;-70
2021/01/02 08:20:28;;;;;;;30.97;20.87;;;6.20;99.90;;;6.55;82.82;101235.25;5074884;28;20105;-71
2021/01/02 08:22:56;;;;;;;36.80;23.43;;;6.30;99.90;;;6.49;82.70;101228.16;5073132;28;20109;-68
2021/01/02 08:25:24;;;;;;;33.20;23.47;;;6.30;99.90;;;6.59;83.03;101239.69;5074507;28;20044;-74
2021/01/02 08:27:51;;;;;;;37.40;24.00;;;6.30;99.90;;;6.36;82.64;101245.44;5073391;28;20066;-74
2021/01/02 08:30:20;;;;;;;39.20;25.30;;;6.20;99.90;;;6.42;83.30;101241.16;5074525;28;20064;-74
2021/01/02 08:32:55;;;;;;;36.30;24.17;;;6.20;99.90;;;6.50;83.17;101243.06;5074294;28;20482;-74
2021/01/02 08:35:29;;;;;;;36.80;24.37;;;6.30;99.90;;;6.59;82.92;101250.22;5074622;28;20053;-75
2021/01/02 08:38:06;;;;;;;38.73;25.83;;;6.40;99.90;;;6.45;83.02;101226.31;5074540;28;20094;-72
2021/01/02 08:40:37;;;;;;;38.97;26.03;;;6.40;99.90;;;6.66;82.77;101245.09;5074087;28;20040;-75
2021/01/02 08:43:05;;;;;;;39.53;26.00;;;6.50;99.90;;;6.58;82.62;101238.81;5073070;28;20109;-73
2021/01/02 08:45:36;;;;;;;37.87;24.67;;;6.60;99.90;;;6.62;82.50;101253.78;5073001;28;20056;-69
2021/01/02 08:48:06;;;;;;;42.00;27.07;;;6.50;99.90;;;6.52;82.83;101225.59;5074224;28;20388;-77
2021/01/02 08:50:40;;;;;;;38.53;25.83;;;6.50;99.90;;;6.60;82.47;101252.00;5074347;28;20433;-71
2021/01/02 08:53:23;;;;;;;38.43;25.47;;;6.50;99.90;;;6.22;82.50;101259.16;5072992;28;20055;-75
2021/01/02 08:55:51;;;;;;;43.37;26.77;;;6.30;99.90;;;6.14;83.14;101260.75;5072972;28;20402;-70
2021/01/02 08:58:30;;;;;;;43.37;26.07;;;6.00;99.90;;;6.36;83.72;101260.31;5073759;28;20234;-72
2021/01/02 09:00:57;;;;;;;44.10;27.30;;;6.10;99.90;;;6.41;83.76;101242.88;5073715;28;20102;-71
2021/01/02 09:03:26;;;;;;;43.20;26.87;;;6.40;99.90;;;6.73;83.97;101267.13;5074022;28;20068;-72
2021/01/02 09:05:57;;;;;;;42.80;28.50;;;6.50;99.90;;;6.84;83.39;101265.53;5074029;28;20413;-70
2021/01/02 09:08:25;;;;;;;42.07;27.70;;;6.60;99.90;;;6.93;83.19;101265.72;5073593;28;20040;-76
2021/01/02 09:10:57;;;;;;;40.87;26.40;;;6.70;99.90;;;7.08;82.69;101260.72;5073615;28;20435;-77
2021/01/02 09:13:27;;;;;;;43.77;28.20;;;7.00;99.90;;;7.21;82.60;101225.84;5073575;28;20097;-75
2021/01/02 09:16:00;;;;;;;39.37;25.90;;;7.20;99.90;;;7.61;82.13;101257.09;5073395;28;20505;-77
2021/01/02 09:18:44;;;;;;;39.90;24.93;;;7.40;99.90;;;7.75;81.06;101259.91;5073497;28;20041;-78
2021/01/02 09:21:23;;;;;;;35.47;23.40;;;7.60;99.90;;;7.81;80.35;101260.91;5073672;28;20042;-79
2021/01/02 09:23:59;;;;;;;34.88;23.38;;;7.70;99.90;;;7.91;79.70;101262.78;5073069;28;20044;-78
2021/01/02 09:26:31;;;;;;;35.40;24.43;;;7.70;99.90;;;7.94;79.18;101270.72;5073759;28;20040;-77
2021/01/02 09:29:01;;;;;;;32.47;23.20;;;7.80;99.90;;;8.00;78.87;101270.78;5073890;28;20050;-78
2021/01/02 09:31:34;;;;;;;34.33;22.85;;;7.90;99.90;;;8.03;78.73;101257.66;5073681;28;20101;-78
2021/01/02 09:34:02;;;;;;;34.50;23.45;;;7.90;99.90;;;8.32;78.80;101273.84;5073195;28;20393;-78
2021/01/02 09:36:31;;;;;;;34.20;24.17;;;8.10;99.90;;;7.02;78.56;100989.75;5073544;28;20119;-78
2021/01/02 09:39:01;;;;;;;35.38;24.08;;;8.30;99.90;;;8.76;78.04;101272.53;5073130;28;20044;-77
2021/01/02 09:41:30;;;;;;;34.22;23.77;;;8.50;99.90;;;9.04;77.65;101279.81;5071904;28;20044;-78
2021/01/02 09:43:59;;;;;;;34.40;23.90;;;8.90;99.90;;;9.50;77.33;101283.69;5071961;28;20049;-78
2021/01/02 09:46:30;;;;;;;36.35;24.23;;;9.30;99.90;;;10.01;76.75;101286.59;5071960;28;20052;-78
2021/01/02 09:48:59;;;;;;;35.72;23.58;;;9.80;99.90;;;10.43;75.31;101287.69;5073052;28;20164;-78
2021/01/02 09:51:30;;;;;;;32.85;22.42;;;10.30;99.90;;;10.88;73.88;101287.75;5072898;28;20052;-77
2021/01/02 09:53:57;;;;;;;35.05;23.77;;;10.70;99.90;;;11.32;73.02;101293.97;5072836;28;20505;-78
2021/01/02 09:56:25;;;;;;;32.58;22.52;;;11.20;99.90;;;11.78;71.81;101314.25;5072534;28;20105;-79
2021/01/02 09:58:53;;;;;;;36.00;23.98;;;11.70;99.90;;;12.12;70.03;101274.34;5072723;28;20040;-79
2021/01/02 10:01:21;;;;;;;31.08;21.65;;;12.10;99.90;;;12.42;68.26;101275.09;5072675;28;20777;-79
2021/01/02 10:03:49;;;;;;;25.55;20.08;;;12.40;99.90;;;12.65;66.76;101304.16;5072701;28;20105;-79
2021/01/02 10:06:17;;;;;;;26.80;19.42;;;12.60;99.90;;;12.17;65.02;101299.97;5072804;28;20048;-79
2021/01/02 10:08:44;;;;;;;24.55;19.42;;;12.10;99.90;;;12.20;66.36;101275.19;5071587;28;20494;-78
2021/01/02 10:11:11;;;;;;;22.40;18.52;;;12.10;99.90;;;12.70;66.41;101292.59;5072828;28;20109;-79
2021/01/02 10:13:39;;;;;;;23.23;18.42;;;12.40;99.90;;;12.81;65.29;101295.22;5071337;28;20441;-78
2021/01/02 10:16:07;;;;;;;25.05;19.08;;;12.50;99.90;;;12.76;64.40;101261.59;5072514;28;20040;-78
2021/01/02 10:18:34;;;;;;;27.17;19.55;;;12.70;99.90;;;13.11;65.23;101275.53;5072737;28;20036;-78
2021/01/02 10:21:02;;;;;;;28.73;19.23;;;12.90;99.90;;;12.04;64.20;101048.16;5072629;28;20036;-74
2021/01/02 10:23:29;;;;;;;28.48;18.42;;;13.20;99.90;;;13.76;63.69;101301.50;5072421;28;20067;-80
2021/01/02 10:25:59;;;;;;;22.23;16.42;;;13.50;99.90;;;13.74;62.54;101277.59;5105225;28;20060;-80
2021/01/02 10:28:27;;;;;;;20.27;15.82;;;13.70;99.90;;;14.35;62.89;101310.56;5072393;28;20118;-77
2021/01/02 10:30:54;;;;;;;26.38;17.40;;;14.00;99.90;;;14.49;61.84;101278.44;5072132;28;20489;-76
2021/01/02 10:33:22;;;;;;;23.77;17.33;;;14.40;99.90;;;14.90;61.47;101317.81;5072499;28;20036;-79
2021/01/02 10:35:50;;;;;;;19.13;14.40;;;14.70;99.90;;;15.19;60.23;101311.09;5072498;28;20047;-76
2021/01/02 10:38:17;;;;;;;17.90;15.05;;;15.00;99.90;;;15.45;59.36;101313.38;5072222;28;20078;-76
2021/01/02 10:40:45;;;;;;;21.08;14.52;;;15.20;99.90;;;15.46;58.80;101301.81;5072398;28;20109;-73